Vremea acum in Sighetu Marmației - Romania

Vrei sa afli care e starea vremii acum in Maramures - Romania? Dorim sa iti furnizam starea vremii pentru Maramures - Romania. Starea vremii Maramures - Romania pentru astazi.

Vremea acum in Sighetu Marmației

Temperatura: 7.3 °C

Este: Senin
Se simte ca: 6.9 °C
Innorat: 0 %
Precipitatii: 0 %
Presiune atmosferica: 1016 hPa
Umiditate: 76%
Vizibilitate: 10 km
Vantul bate din ESE cu 4.3 km/h

Evolutia vremii in Sighetu Marmației pe ore

Ora: 04:00
Senin
Temperatura: 7.4°C
Sansa de precipitatii: 0%
Ora Descriere Temp Se simte Precipitatii Umiditate Vant
00:00Senin0%76%ESE 4 KM/H
01:00Senin8.5°8.4°0%77%ESE 4.3 KM/H
02:00Senin8.1°0%78%ESE 4 KM/H
03:00Senin7.7°7.5°0%78%E 4 KM/H
04:00Senin7.4°7.2°0%79%E 4 KM/H
05:00Senin7.3°6.8°0%76%ESE 4.3 KM/H
06:00Senin6.8°6.2°0%79%ESE 4.7 KM/H
07:00Senin7.8°7.6°0%77%ESE 4.3 KM/H
08:00Senin12.4°12.9°0%69%ESE 3.6 KM/H
09:00Senin16.1°16.1°0%61%SE 3.6 KM/H
10:00Senin18.4°18.4°0%54%SSE 3.2 KM/H
11:00Senin20.6°20.6°0%47%S 2.9 KM/H
12:00Senin22.1°24.1°0%41%SW 2.5 KM/H
13:00Senin23°24.3°0%38%W 3.6 KM/H
14:00Senin23.5°24.4°0%37%W 5 KM/H
15:00Senin23.7°24.5°0%37%W 6.8 KM/H
16:00Senin23.6°24.4°0%37%W 8.6 KM/H
17:00Senin23.3°24.4°0%38%WNW 10.1 KM/H
18:00Senin22.5°24.4°0%44%WNW 9.4 KM/H
19:00Senin20.3°20.3°0%57%NW 6.5 KM/H
20:00Senin15°15°0%64%NNW 2.9 KM/H
21:00Senin12.5°12.5°0%68%NNE 1.1 KM/H
22:00Senin11.5°11.5°0%69%E 1.8 KM/H
23:00Senin10.9°11.2°0%69%ESE 3.6 KM/H




tutorials